Shawnee Mission, KS (66227)

4:14 PM CDT on May 05, 2015 (GMT -0500)
Madison Heights | | Change Station
CLOSE
Current Station
Personal Weather Station
Location: Shawnee, KS
Elevation: 1007 ft
Nearby Weather Stations

Elev 1007 ft 39.00 °N, 94.84 °W | Updated 5 minutes ago

Partly Cloudy
Partly Cloudy
78.1 °F
Feels Like 79 °F
N
4.7
Wind Variable Wind from WSW

Today
High -- | Low -- °F
--% Chance of Precip.
Yesterday
High -- | Low -- °F
Precip. -- in
6:17 AM 8:15 PM
Full, 97% visible
Pressure 30.03 in
Visibility 10.0 miles
Clouds Few 6000 ft
Heat Index 79 °F
Dew Point 60 °F
Humidity 54%
Rainfall 0.00 in
Snow Depth Not available.
UV 9 out of 12
Pollen 6.10 out of 12
Air Quality Not available.
Flu Activity Sporadic
METAR KIXD 051953Z 20009KT 10SM FEW060 27/13 A3006 RMK AO2 SLP169 T02720128

More Conditions Fewer Conditions

Pressure 30.03 in
Visibility 10.0 miles
Clouds Few 6000 ft
Heat Index 79 °F
Dew Point 60 °F
Humidity 54%
Rainfall 0.00 in
Snow Depth Not available.
UV 9 out of 12
Pollen 6.10 out of 12
Air Quality Not available.
Flu Activity Sporadic
METAR KIXD 051953Z 20009KT 10SM FEW060 27/13 A3006 RMK AO2 SLP169 T02720128

More Conditions Fewer Conditions

10-Day Weather Forecast

Almanac

Astronomy

May. 05, 2015 Rise Set
Actual Time
Civil Twilight
Nautical Twilight
Astronomical Twilight
Moon
Length of Visible Light
Length of Day
Tomorrow will be .
, % of the Moon is Illuminated

Today's Extremes

State Highs State Lows

Community

WunderPhotos

Upload Photos

1,818,979 photos uploaded!

WunderBlogs® & News

Nearby

Air Quality

  Air Quality AQ Index Pollutant
Not available.

Snow Depth

Station Depth Elevation

Earthquake Activity

City Distance Mag. Time & Date
Minimum magnitude displayed is 2.5.

Coastal Water Temperatures

Place Temperature

Stations

Nearby Weather Stations

Station Location Temp. Windchill Dew Point Humidity Wind Precip. Elev Updated Type